Latest Weather Observations for Kununurra Airport

IDD60801

Issued at 7:04 pm CST Thursday 2 April 2015 (issued every 30 minutes, with the page automatically refreshed every 10 minutes)

About weather observations | Map of weather stations | Latest weather observations for NT | Other Formats
Station Details ID: 002056 Name: KUNUNURRA AERO Lat: -15.78 Lon: 128.71 Height: 44.0 m
Data from the previous 72 hours. | See also: Recent months at Kununurra Airport
Date/Time
CST
Temp
°C
App
Temp
°C
Dew
Point
Rel
Hum
%
Delta-T
°C
Wind Press
QNH
hPa
Press
MSL
hPa
Rain
since 9 am
mm
Dir
 
Spd
km/h
Gust
km/h
Spd
kts
Gust
kts
02/07:00pm 33.9 35.7 19.6 43 9.5 NNE 9 11 5 6 1006.4 1006.1 0.0
02/06:30pm 35.5 36.6 18.8 37 11.0 N 11 11 6 6 1006.3 1006.0 0.0
02/06:00pm 37.3 37.7 16.4 29 13.4 NE 9 13 5 7 1006.1 1005.8 0.0
02/05:30pm 37.7 37.8 16.4 28 13.7 NE 11 17 6 9 1005.9 1005.6 0.0
02/05:00pm 38.1 37.9 16.8 28 13.8 NNE 13 24 7 13 1005.8 1005.5 0.0
02/04:30pm 38.3 37.3 15.7 26 14.4 ENE 15 26 8 14 1006.0 1005.7 0.0
02/04:00pm 38.5 37.9 15.6 26 14.6 SE 13 19 7 10 1006.0 1005.7 0.0
02/03:30pm 38.3 37.3 15.7 26 14.4 NE 15 20 8 11 1006.4 1006.1 0.0
02/03:00pm 38.3 37.4 16.8 28 13.9 NE 17 28 9 15 1006.9 1006.6 0.0
02/02:30pm 37.7 37.8 17.4 30 13.2 NNE 13 24 7 13 1007.3 1007.0 0.0
02/02:00pm 37.8 37.7 16.9 29 13.5 ENE 13 24 7 13 1007.7 1007.4 0.0
02/01:30pm 36.9 36.9 18.9 34 11.9 E 17 22 9 12 1008.3 1008.0 0.0
02/01:00pm 37.9 38.0 17.5 30 13.3 SSE 13 17 7 9 1008.5 1008.2 0.0
02/12:30pm 36.8 38.9 19.4 36 11.6 SSE 7 13 4 7 1009.0 1008.7 0.0
02/12:00pm 35.7 37.9 20.4 40 10.3 SE 9 15 5 8 1009.5 1009.2 0.0
02/11:30am 35.6 38.8 21.2 43 9.8 SSW 6 9 3 5 1009.9 1009.6 0.0
02/11:00am 34.8 38.2 21.6 46 9.0 SW 6 11 3 6 1010.1 1009.8 0.0
02/10:30am 33.5 36.7 21.2 48 8.3 SSW 6 13 3 7 1010.4 1010.1 0.0
02/10:00am 33.1 36.7 22.1 52 7.5 W 6 7 3 4 1010.5 1010.2 0.0
02/09:30am 31.9 35.2 21.9 55 6.8 N 7 11 4 6 1010.4 1010.1 0.0
02/09:00am 30.3 34.2 23.0 65 5.0 N 7 9 4 5 1010.3 1010.0 0.0
02/08:30am 29.2 34.3 22.6 67 4.5 CALM 0 0 0 0 1010.0 1009.7 0.0
02/08:00am 26.5 31.2 22.7 79 2.6 N 2 6 1 3 1009.9 1009.6 0.0
02/07:30am 25.0 28.9 22.6 86 1.6 NNW 6 6 3 3 1009.5 1009.2 0.0
02/07:00am 24.4 28.1 22.3 88 1.4 NNW 6 7 3 4 1009.1 1008.8 0.0
02/06:30am 24.7 29.3 22.5 87 1.5 N 2 6 1 3 1009.0 1008.7 0.0
02/06:00am 24.5 29.4 22.4 88 1.4 CALM 0 0 0 0 1008.8 1008.5 0.0
02/05:30am 24.8 29.7 22.4 86 1.6 CALM 0 0 0 0 1008.5 1008.2 0.0
02/05:00am 25.4 30.3 22.4 83 2.0 CALM 0 0 0 0 1008.3 1008.0 0.0
02/04:30am 25.7 30.9 22.9 84 1.9 CALM 0 0 0 0 1008.3 1008.0 0.0
02/04:00am 25.8 30.8 22.5 82 2.2 CALM 0 0 0 0 1008.3 1008.0 0.0
02/03:30am 25.7 29.6 22.6 83 2.1 SW 6 7 3 4 1008.5 1008.2 0.0
02/03:00am 26.3 31.3 22.5 79 2.6 CALM 0 6 0 3 1008.7 1008.4 0.0
02/02:30am 26.0 30.2 22.4 80 2.4 NW 4 6 2 3 1008.9 1008.6 0.0
02/02:00am 26.5 30.6 22.3 78 2.8 N 4 9 2 5 1009.3 1009.0 0.0
02/01:30am 27.6 32.5 22.4 73 3.5 CALM 0 0 0 0 1009.7 1009.4 0.0
02/01:00am 27.6 31.9 22.6 74 3.4 N 4 7 2 4 1010.0 1009.7 0.0
02/12:30am 27.9 31.6 22.6 73 3.6 NNE 7 9 4 5 1010.1 1009.8 0.0
02/12:00am 28.0 32.1 22.9 74 3.5 N 6 7 3 4 1010.1 1009.8 0.0
 
Date/Time
CST
Temp
°C
App
Temp
°C
Dew
Point
Rel
Hum
%
Delta-T
°C
Wind Press
QNH
hPa
Press
MSL
hPa
Rain
since 9 am
mm
Dir
 
Spd
km/h
Gust
km/h
Spd
kts
Gust
kts
01/11:30pm 28.5 31.5 22.6 70 4.0 N 11 13 6 7 1010.1 1009.8 0.0
01/11:00pm 29.1 32.1 22.6 68 4.4 N 11 13 6 7 1010.1 1009.8 0.0
01/10:30pm 29.4 32.6 23.0 68 4.4 NNE 11 13 6 7 1010.1 1009.8 0.0
01/10:00pm 29.6 33.3 23.2 68 4.4 N 9 11 5 6 1010.2 1009.9 0.0
01/09:30pm 30.0 33.3 23.2 67 4.7 N 11 13 6 7 1010.0 1009.7 0.0
01/09:00pm 30.1 33.5 23.3 67 4.7 N 11 13 6 7 1009.6 1009.3 0.0
01/08:30pm 30.7 34.4 23.3 64 5.1 N 9 13 5 7 1009.1 1008.8 0.0
01/08:00pm 31.6 34.0 23.0 60 5.9 N 15 17 8 9 1008.6 1008.3 0.0
01/07:30pm 32.4 35.3 23.1 58 6.4 N 13 19 7 10 1008.4 1008.1 0.0
01/07:00pm 34.2 37.4 22.3 50 8.2 N 9 11 5 6 1008.0 1007.7 0.0
01/06:30pm 35.7 38.8 22.2 45 9.3 N 9 13 5 7 1007.7 1007.4 0.0
01/06:00pm 36.9 39.3 20.9 39 10.9 N 9 13 5 7 1007.5 1007.2 0.0
01/05:30pm 37.2 39.6 21.6 40 10.7 N 11 15 6 8 1007.4 1007.1 0.0
01/05:00pm 37.6 39.4 21.9 40 10.8 NNW 15 19 8 10 1007.3 1007.0 0.0
01/04:30pm 38.0 41.1 22.1 40 11.0 N 9 17 5 9 1007.4 1007.1 0.0
01/04:00pm 38.0 40.2 21.9 39 11.1 ENE 13 22 7 12 1007.7 1007.4 0.0
01/03:30pm 38.0 40.4 22.3 40 10.9 SE 13 20 7 11 1008.0 1007.7 0.0
01/03:00pm 38.2 41.3 22.9 41 10.7 ESE 11 20 6 11 1008.3 1008.0 0.0
01/02:30pm 37.4 40.3 22.4 42 10.4 NNE 11 22 6 12 1008.7 1008.4 0.0
01/02:00pm 38.5 41.8 23.9 43 10.3 NE 13 26 7 14 1009.2 1008.9 0.0
01/01:30pm 37.1 39.9 23.6 46 9.5 NNE 15 22 8 12 1009.9 1009.6 0.0
01/01:00pm 37.6 41.2 23.7 45 9.8 NE 11 22 6 12 1010.3 1010.0 0.0
01/12:30pm 36.5 40.1 23.7 47 9.0 NNE 11 17 6 9 1011.0 1010.7 0.0
01/12:00pm 36.1 39.4 23.2 47 9.0 ENE 11 22 6 12 1011.6 1011.3 0.0
01/11:30am 35.8 39.3 23.5 49 8.6 N 11 19 6 10 1012.2 1011.9 0.0
01/11:00am 35.4 38.8 23.4 50 8.4 ENE 11 17 6 9 1012.6 1012.3 0.0
01/10:30am 34.8 38.7 23.6 52 7.8 NE 9 13 5 7 1012.8 1012.5 0.0
01/10:00am 34.3 38.7 23.4 53 7.6 SE 6 9 3 5 1012.9 1012.6 0.0
01/09:30am 33.3 37.4 23.0 54 7.1 SE 6 7 3 4 1012.9 1012.6 0.0
01/09:00am 31.8 36.1 23.3 60 5.9 W 6 7 3 4 1012.9 1012.6 0.0
01/08:30am 29.5 37.3 27.0 86 1.8 CALM 0 0 0 0 1012.7 1012.4 0.0
01/08:00am 28.2 34.2 24.3 79 2.7 CALM 0 0 0 0 1012.4 1012.1 0.0
01/07:30am 25.8 31.7 24.1 90 1.2 CALM 0 0 0 0 1012.1 1011.8 0.0
01/07:00am 25.9 30.2 23.3 85 1.8 NE 6 6 3 3 1011.8 1011.5 0.0
01/06:30am 26.5 32.3 24.0 86 1.7 CALM 0 0 0 0 1011.7 1011.4 0.0
01/06:00am 26.8 32.8 24.2 86 1.8 CALM 0 0 0 0 1011.5 1011.2 0.0
01/05:30am 27.1 32.4 24.4 85 1.9 E 4 7 2 4 1011.2 1010.9 0.0
01/05:00am 26.2 32.5 24.8 92 1.0 CALM 0 0 0 0 1011.1 1010.8 0.0
01/04:30am 26.3 32.3 24.3 89 1.4 CALM 0 4 0 2 1011.0 1010.7 0.0
01/04:00am 26.0 31.6 24.3 90 1.2 NW 2 7 1 4 1010.9 1010.6 0.0
01/03:30am 26.7 32.3 23.5 82 2.2 CALM 0 0 0 0 1010.9 1010.6 0.0
01/03:00am 27.4 33.3 24.1 82 2.3 CALM 0 0 0 0 1011.0 1010.7 0.0
01/02:30am 27.2 31.9 24.0 83 2.2 NW 6 7 3 4 1011.3 1011.0 0.0
01/02:00am 27.6 33.3 23.7 79 2.7 CALM 0 2 0 1 1011.5 1011.2 0.0
01/01:30am 27.8 32.7 23.7 78 2.8 SW 4 9 2 5 1011.7 1011.4 0.0
01/01:00am 29.1 33.7 24.2 75 3.4 SSE 7 9 4 5 1012.0 1011.7 0.0
01/12:30am 29.0 33.9 24.3 76 3.3 SE 6 7 3 4 1012.3 1012.0 0.0
01/12:00am 28.7 34.3 23.6 74 3.5 CALM 0 0 0 0 1012.4 1012.1 0.0
 
Date/Time
CST
Temp
°C
App
Temp
°C
Dew
Point
Rel
Hum
%
Delta-T
°C
Wind Press
QNH
hPa
Press
MSL
hPa
Rain
since 9 am
mm
Dir
 
Spd
km/h
Gust
km/h
Spd
kts
Gust
kts
31/11:30pm 29.0 33.9 23.0 70 4.1 NNE 2 6 1 3 1012.2 1011.9 0.0
31/11:00pm 29.0 33.6 22.5 68 4.4 NW 2 7 1 4 1012.3 1012.0 0.0
31/10:30pm 29.1 34.1 22.5 67 4.5 CALM 0 0 0 0 1012.1 1011.8 0.0
31/10:00pm 29.0 34.2 22.9 69 4.2 CALM 0 0 0 0 1012.1 1011.8 0.0
31/09:30pm 28.8 32.7 22.6 69 4.2 N 6 9 3 5 1011.9 1011.6 0.0
31/09:00pm 29.8 34.0 23.1 67 4.6 NNE 6 7 3 4 1011.7 1011.4 0.0
31/08:30pm 30.3 33.0 22.2 62 5.5 N 11 13 6 7 1011.4 1011.1 0.0
31/08:00pm 30.8 34.0 22.3 60 5.8 N 9 9 5 5 1011.0 1010.7 0.0
31/07:30pm 31.4 34.9 23.6 63 5.4 N 11 13 6 7 1010.6 1010.3 0.0
31/07:00pm 32.6 35.1 21.7 52 7.4 NNW 11 13 6 7 1010.3 1010.0 0.0
31/06:30pm 34.5 36.6 20.9 45 9.2 NNW 11 13 6 7 1010.0 1009.7 0.0
31/06:00pm 36.4 37.7 19.4 37 11.3 NE 11 17 6 9 1009.7 1009.4 0.0
31/05:30pm 36.9 37.8 18.3 33 12.2 ESE 11 17 6 9 1009.6 1009.3 0.0
31/05:00pm 36.5 36.9 18.2 34 12.0 ESE 13 20 7 11 1009.6 1009.3 0.0
31/04:30pm 36.9 37.4 17.5 32 12.6 SE 11 17 6 9 1009.5 1009.2 0.0
31/04:00pm 37.7 38.3 18.5 32 12.7 ENE 13 20 7 11 1009.5 1009.2 0.0
31/03:30pm 37.2 38.6 18.6 33 12.3 E 9 15 5 8 1009.9 1009.6 0.0
31/03:00pm 36.5 37.7 19.0 35 11.6 NE 11 20 6 11 1010.2 1009.9 0.0
31/02:30pm 36.9 37.6 18.9 34 11.9 ENE 13 19 7 10 1010.6 1010.3 0.0
31/02:00pm 35.4 36.9 19.0 38 10.8 NNE 9 19 5 10 1011.0 1010.7 0.0
31/01:30pm 36.4 37.9 19.8 37 11.1 NE 11 20 6 11 1011.5 1011.2 0.0
31/01:00pm 35.1 37.1 20.0 41 10.1 NE 9 17 5 9 1012.2 1011.9 0.0
31/12:30pm 35.1 36.7 20.0 41 10.1 NNE 11 17 6 9 1012.8 1012.5 0.0
31/12:00pm 35.4 36.6 20.0 40 10.3 NNE 13 22 7 12 1013.4 1013.1 0.0
31/11:30am 35.2 35.6 19.1 38 10.6 NNE 15 24 8 13 1014.0 1013.7 0.0
31/11:00am 33.5 34.8 20.9 47 8.5 NE 15 20 8 11 1014.3 1014.0 0.0
31/10:30am 33.1 35.6 21.1 49 8.1 NNE 9 15 5 8 1014.5 1014.2 0.0
31/10:00am 32.7 36.0 21.8 52 7.4 N 7 13 4 7 1014.6 1014.3 0.0
31/09:30am 32.0 35.3 21.5 53 7.1 NNE 6 11 3 6 1014.5 1014.2 0.0
31/09:00am 31.3 35.4 21.5 56 6.6 ESE 2 7 1 4 1014.3 1014.0 0.0
31/08:30am 29.6 34.6 22.5 65 4.8 CALM 0 0 0 0 1014.0 1013.7 0.0
31/08:00am 28.1 32.8 23.3 75 3.3 E 4 6 2 3 1013.6 1013.3 0.0
31/07:30am 26.2 31.8 23.6 85 1.8 CALM 0 0 0 0 1013.3 1013.0 0.0
31/07:00am 24.7 30.0 23.1 91 1.1 CALM 0 0 0 0 1013.0 1012.7 0.0
31/06:30am 25.0 30.3 23.1 89 1.3 CALM 0 0 0 0 1012.6 1012.3 0.0
31/06:00am 25.0 30.5 23.4 91 1.1 CALM 0 0 0 0 1012.4 1012.1 0.0
31/05:30am 24.7 30.0 23.1 91 1.1 CALM 0 0 0 0 1012.0 1011.7 0.0
31/05:00am 25.2 30.7 23.4 90 1.2 CALM 0 0 0 0 1011.8 1011.5 0.0
31/04:30am 25.4 30.7 23.0 86 1.6 CALM 0 0 0 0 1011.7 1011.4 0.0
31/04:00am 25.3 30.8 23.4 89 1.3 CALM 0 0 0 0 1011.7 1011.4 0.0
31/03:30am 25.3 30.8 23.4 89 1.3 CALM 0 0 0 0 1011.8 1011.5 0.0
31/03:00am 25.7 31.4 23.7 89 1.4 CALM 0 0 0 0 1011.8 1011.5 0.0
31/02:30am 26.1 31.3 22.9 82 2.2 CALM 0 0 0 0 1012.0 1011.7 0.0
31/02:00am 25.8 31.2 23.2 85 1.8 CALM 0 0 0 0 1012.1 1011.8 0.0
31/01:30am 26.3 31.9 23.5 84 1.9 CALM 0 0 0 0 1012.5 1012.2 0.0
31/01:00am 25.8 31.4 23.5 87 1.6 CALM 0 6 0 3 1012.7 1012.4 0.0
31/12:30am 27.4 33.0 23.5 79 2.7 CALM 0 0 0 0 1012.8 1012.5 0.0
31/12:00am 27.1 33.4 24.7 87 1.7 CALM 0 0 0 0 1013.1 1012.8 0.0
 
Date/Time
CST
Temp
°C
App
Temp
°C
Dew
Point
Rel
Hum
%
Delta-T
°C
Wind Press
QNH
hPa
Press
MSL
hPa
Rain
since 9 am
mm
Dir
 
Spd
km/h
Gust
km/h
Spd
kts
Gust
kts
30/11:30pm 27.5 33.2 23.7 80 2.6 CALM 0 0 0 0 1013.3 1013.0 0.0
30/11:00pm 28.5 33.8 23.1 72 3.7 CALM 0 0 0 0 1013.3 1013.0 0.0
30/10:30pm 28.0 33.4 23.2 75 3.3 CALM 0 0 0 0 1013.4 1013.1 0.0
30/10:00pm 28.4 33.2 22.2 69 4.2 CALM 0 0 0 0 1013.2 1012.9 0.0
30/09:30pm 28.3 33.4 22.6 71 3.9 CALM 0 0 0 0 1013.0 1012.7 0.0
30/09:00pm 30.6 35.4 22.2 61 5.7 CALM 0 6 0 3 1012.6 1012.3 0.0

Other Formats:

Comma delimited format used in spreadsheet applications
http://www.bom.gov.au/fwo/IDD60801/IDD60801.94216.axf

JavaScript Object Notation format (JSON) in row-major order
http://www.bom.gov.au/fwo/IDD60801/IDD60801.94216.json